Isle of Tiree, United Kingdom
Current Conditions -  °F | °C
As of 6:20 PM on Monday 26 Jan 2015 (Local Time) from EGPU Reporting Station
Clear Clear  
Wind Chill:   Ceiling: Unl
Heat Index:   Visibility: 6mi
Dew Point:   Wind: 20mph
Humidity: 71%   Direction: 300°WNW
Pressure: 30.21"   Gusts: NA
Location:  56.51°N, 6.81°W
Report Text: EGPU 261820Z AUTO 30017KT 9999 NCD 07/02 Q1023 RERA
Loading
Personal Weather Stations






























Interactive Weather Map New forecast layout! Learn more

10-Day Weather Forecast

Advertisements
Track Severe Weather on mobile